Time;durP1;ratioP1;P1;durP2;ratioP2;P2;SDS_P1;SDS_P2;PMS_P1;PMS_P2;Temp;Humidity;BMP_temperature;BMP_pressure;BME280_temperature;BME280_humidity;BME280_pressure;Samples;Min_cycle;Max_cycle;Signal;HPM_P1;HPM_P2
2021/12/01 00:01:47;;;;;;;3.83;2.63;;;17.20;58.90;;;;;;5054414;28;20198;-62
2021/12/01 00:04:12;;;;;;;4.60;2.75;;;17.10;58.90;;;;;;5054095;28;20179;-61
2021/12/01 00:06:38;;;;;;;3.20;2.90;;;17.10;58.90;;;;;;5053276;28;20183;-61
2021/12/01 00:09:04;;;;;;;3.78;3.03;;;17.10;59.00;;;;;;5054259;28;20171;-62
2021/12/01 00:11:29;;;;;;;2.67;2.47;;;17.10;59.00;;;;;;5053811;28;20171;-64
2021/12/01 00:13:55;;;;;;;5.32;2.97;;;17.10;59.00;;;;;;5053306;28;20175;-64
2021/12/01 00:16:20;;;;;;;3.60;2.95;;;17.10;59.00;;;;;;5053548;28;20171;-63
2021/12/01 00:18:46;;;;;;;4.60;3.15;;;17.10;59.00;;;;;;5054071;28;20187;-64
2021/12/01 00:21:11;;;;;;;2.97;2.63;;;17.10;59.00;;;;;;5053634;28;20262;-63
2021/12/01 00:23:37;;;;;;;3.88;2.72;;;17.00;59.60;;;;;;5053713;28;20229;-63
2021/12/01 00:26:03;;;;;;;2.42;2.22;;;17.10;59.00;;;;;;5053830;28;20179;-64
2021/12/01 00:28:28;;;;;;;3.05;2.45;;;17.00;59.00;;;;;;5052565;28;20614;-63
2021/12/01 00:30:54;;;;;;;3.03;2.70;;;17.00;59.00;;;;;;5053877;28;20175;-64
2021/12/01 00:33:22;;;;;;;3.20;2.65;;;16.90;59.00;;;;;;5052007;28;20177;-63
2021/12/01 00:35:55;;;;;;;2.70;2.50;;;17.00;59.00;;;;;;5052996;28;20194;-62
2021/12/01 00:38:21;;;;;;;3.17;2.38;;;17.00;59.00;;;;;;5053367;28;20179;-62
2021/12/01 00:40:46;;;;;;;3.35;2.58;;;17.00;59.10;;;;;;5052627;28;20236;-63
2021/12/01 00:43:18;;;;;;;2.83;2.50;;;17.00;59.10;;;;;;5053303;28;20198;-62
2021/12/01 00:46:00;;;;;;;4.72;2.92;;;17.00;59.10;;;;;;5053484;28;20175;-62
2021/12/01 00:48:25;;;;;;;2.88;2.35;;;17.00;59.10;;;;;;5052291;28;20203;-62
2021/12/01 00:50:51;;;;;;;2.38;2.17;;;17.00;59.70;;;;;;5053282;28;20210;-64
2021/12/01 00:53:17;;;;;;;4.38;2.55;;;16.90;59.10;;;;;;5053305;28;20225;-62
2021/12/01 00:55:43;;;;;;;2.38;2.17;;;16.90;59.10;;;;;;5052165;28;20171;-62
2021/12/01 00:58:11;;;;;;;2.70;2.50;;;16.90;59.10;;;;;;5053224;28;20183;-63
2021/12/01 01:00:37;;;;;;;2.85;2.33;;;16.90;59.70;;;;;;5052793;28;20206;-62
2021/12/01 01:03:02;;;;;;;2.35;2.13;;;16.90;59.10;;;;;;5052519;28;20217;-62
2021/12/01 01:05:28;;;;;;;2.67;2.20;;;16.90;59.10;;;;;;5052850;28;20167;-62
2021/12/01 01:07:53;;;;;;;2.50;2.30;;;16.90;59.10;;;;;;5052849;28;20274;-62
2021/12/01 01:18:35;;;;;;;2.22;2.03;;;16.90;59.10;;;;;;5052429;28;20181;-63
2021/12/01 01:21:01;;;;;;;2.45;1.95;;;16.90;59.20;;;;;;5052821;28;20214;-62
2021/12/01 01:23:29;;;;;;;2.20;2.00;;;16.80;59.10;;;;;;5051729;28;20563;-61
2021/12/01 01:25:55;;;;;;;2.00;1.80;;;16.80;59.10;;;;;;5052728;28;20186;-63
2021/12/01 01:28:21;;;;;;;2.30;1.80;;;16.80;59.10;;;;;;5052151;28;20183;-63
2021/12/01 01:30:46;;;;;;;1.83;1.73;;;16.80;59.10;;;;;;5051749;28;20171;-62
2021/12/01 01:33:12;;;;;;;2.22;2.03;;;16.80;59.10;;;;;;5052483;28;20170;-60
2021/12/01 01:35:37;;;;;;;1.98;1.88;;;16.80;59.20;;;;;;5052054;28;20190;-62
2021/12/01 01:38:03;;;;;;;2.20;1.85;;;16.80;59.20;;;;;;5051598;28;20540;-63
2021/12/01 01:40:28;;;;;;;2.35;2.15;;;16.80;59.20;;;;;;5051816;28;20744;-62
2021/12/01 01:42:54;;;;;;;2.17;2.00;;;16.80;59.20;;;;;;5052238;28;20171;-63
2021/12/01 01:45:19;;;;;;;1.92;1.77;;;16.80;59.20;;;;;;5051308;28;20213;-61
2021/12/01 01:48:00;;;;;;;2.72;1.73;;;16.80;59.20;;;;;;5052061;28;20230;-62
2021/12/01 01:50:36;;;;;;;2.17;1.95;;;16.80;59.20;;;;;;5051668;28;20242;-62
2021/12/01 01:53:12;;;;;;;2.25;1.63;;;16.70;59.20;;;;;;5051495;28;20236;-63
2021/12/01 01:55:39;;;;;;;1.90;1.80;;;16.70;59.20;;;;;;5051703;28;20427;-63
2021/12/01 01:58:04;;;;;;;2.00;1.80;;;16.70;59.20;;;;;;5051219;28;20179;-62
2021/12/01 02:00:30;;;;;;;2.63;1.77;;;16.70;59.20;;;;;;5051798;28;20210;-61
2021/12/01 02:02:58;;;;;;;1.85;1.70;;;16.70;59.20;;;;;;5051794;28;20171;-62
2021/12/01 02:05:23;;;;;;;2.03;1.77;;;16.70;59.20;;;;;;5050901;28;20209;-61
2021/12/01 02:07:51;;;;;;;1.85;1.63;;;16.70;59.20;;;;;;5051676;28;20202;-62
2021/12/01 02:10:17;;;;;;;2.35;1.58;;;16.70;59.20;;;;;;5051860;28;20629;-62
2021/12/01 02:12:42;;;;;;;1.75;1.65;;;16.70;59.30;;;;;;5050793;28;20167;-64
2021/12/01 02:15:08;;;;;;;1.60;1.50;;;16.70;59.30;;;;;;5052059;28;20175;-64
2021/12/01 02:17:34;;;;;;;1.88;1.60;;;16.70;59.20;;;;;;5051368;28;20237;-63
2021/12/01 02:20:00;;;;;;;1.90;1.60;;;16.70;59.30;;;;;;5051119;28;20238;-63
2021/12/01 02:22:25;;;;;;;1.58;1.48;;;16.70;59.20;;;;;;5051483;28;20171;-62
2021/12/01 02:24:53;;;;;;;1.50;1.40;;;16.70;59.30;;;;;;5051777;28;20531;-63
2021/12/01 02:27:19;;;;;;;1.60;1.50;;;16.50;59.20;;;;;;5050744;28;20187;-63
2021/12/01 02:29:44;;;;;;;1.40;1.30;;;16.60;59.20;;;;;;5051621;28;20591;-63
2021/12/01 02:32:10;;;;;;;1.58;1.42;;;16.60;59.20;;;;;;5051948;28;20167;-63
2021/12/01 02:34:38;;;;;;;2.00;1.55;;;16.60;59.20;;;;;;5050784;28;20641;-63
2021/12/01 02:37:04;;;;;;;1.48;1.38;;;16.60;59.30;;;;;;5051634;28;20518;-62
2021/12/01 02:39:29;;;;;;;1.77;1.55;;;16.60;59.20;;;;;;5051319;28;20206;-62
2021/12/01 02:41:57;;;;;;;2.08;1.42;;;16.60;59.20;;;;;;5050886;28;20170;-63
2021/12/01 02:44:23;;;;;;;1.60;1.50;;;16.60;59.30;;;;;;5051499;28;20179;-63
2021/12/01 02:46:48;;;;;;;1.48;1.38;;;16.60;59.30;;;;;;5051749;28;20185;-63
2021/12/01 02:49:21;;;;;;;1.70;1.60;;;16.60;59.20;;;;;;5050685;28;20237;-62
2021/12/01 02:51:48;;;;;;;1.45;1.35;;;16.60;59.20;;;;;;5051585;28;20181;-63
2021/12/01 02:54:14;;;;;;;1.40;1.30;;;16.50;59.30;;;;;;5050771;28;20249;-64
2021/12/01 02:56:39;;;;;;;2.05;1.30;;;16.60;59.30;;;;;;5051381;28;20186;-66
2021/12/01 02:59:06;;;;;;;1.50;1.40;;;16.60;59.30;;;;;;5050496;28;20202;-63
2021/12/01 03:01:31;;;;;;;1.42;1.27;;;16.60;59.30;;;;;;5050537;28;20214;-63
2021/12/01 03:03:58;;;;;;;1.48;1.30;;;16.60;59.30;;;;;;5051591;28;20167;-63
2021/12/01 03:06:26;;;;;;;1.17;1.10;;;16.60;59.40;;;;;;5049932;28;20179;-62
2021/12/01 03:08:52;;;;;;;1.40;1.30;;;16.50;59.20;;;;;;5050459;28;20653;-63
2021/12/01 03:11:17;;;;;;;1.48;1.23;;;16.50;59.20;;;;;;5050281;28;20172;-62
2021/12/01 03:13:43;;;;;;;1.48;1.33;;;16.50;59.30;;;;;;5051166;28;20179;-64
2021/12/01 03:16:08;;;;;;;1.17;1.17;;;16.50;59.30;;;;;;5050816;28;20190;-63
2021/12/01 03:18:34;;;;;;;1.20;1.20;;;16.50;59.20;;;;;;5051247;28;20228;-63
2021/12/01 03:21:03;;;;;;;1.88;1.30;;;16.50;59.20;;;;;;5051427;28;20229;-63
2021/12/01 03:23:29;;;;;;;1.20;1.10;;;16.50;59.30;;;;;;5050145;28;20224;-62
2021/12/01 03:25:54;;;;;;;1.45;1.35;;;16.50;59.30;;;;;;5051425;28;20184;-62
2021/12/01 03:28:20;;;;;;;0.90;0.90;;;16.50;59.90;;;;;;5051132;28;20225;-62
2021/12/01 03:30:46;;;;;;;1.27;1.17;;;16.50;59.20;;;;;;5050272;28;20205;-63
2021/12/01 03:33:14;;;;;;;1.60;1.20;;;16.50;59.30;;;;;;5050889;28;20167;-61
2021/12/01 03:35:41;;;;;;;1.08;1.08;;;16.50;59.30;;;;;;5054576;28;20199;-61
2021/12/01 03:38:07;;;;;;;1.27;1.27;;;16.40;59.20;;;;;;5054153;28;20179;-62
2021/12/01 03:40:32;;;;;;;1.10;1.02;;;16.40;59.20;;;;;;5054583;28;20222;-63
2021/12/01 03:42:58;;;;;;;1.10;1.10;;;16.40;59.20;;;;;;5054899;28;20688;-62
2021/12/01 03:45:23;;;;;;;1.10;1.10;;;16.40;59.20;;;;;;5053752;28;20551;-62
2021/12/01 03:47:49;;;;;;;1.05;0.95;;;16.40;59.20;;;;;;5054712;28;20642;-61
2021/12/01 03:50:15;;;;;;;1.45;1.13;;;16.40;59.30;;;;;;5054481;28;20250;-61
2021/12/01 03:52:40;;;;;;;1.13;1.13;;;16.40;59.20;;;;;;5053647;28;20169;-63
2021/12/01 03:55:07;;;;;;;1.30;1.05;;;16.40;59.20;;;;;;5054676;28;20210;-63
2021/12/01 03:57:33;;;;;;;1.08;1.08;;;16.40;59.20;;;;;;5053453;28;20629;-63
2021/12/01 03:59:58;;;;;;;0.82;0.82;;;16.40;59.20;;;;;;5054501;28;20273;-63
2021/12/01 04:02:24;;;;;;;1.00;0.90;;;16.40;59.20;;;;;;5054165;28;20171;-62
2021/12/01 04:04:49;;;;;;;0.95;0.95;;;16.40;59.20;;;;;;5053806;28;20175;-62
2021/12/01 04:07:15;;;;;;;1.00;1.00;;;16.40;59.20;;;;;;5054197;28;20672;-61
2021/12/01 04:09:42;;;;;;;0.77;0.77;;;16.40;59.20;;;;;;5054205;28;20541;-62
2021/12/01 04:12:08;;;;;;;1.10;1.00;;;16.30;59.20;;;;;;5053758;28;20202;-63
2021/12/01 04:14:33;;;;;;;0.82;0.82;;;16.30;59.20;;;;;;5052793;28;20214;-64
2021/12/01 04:16:59;;;;;;;0.85;0.85;;;16.30;59.20;;;;;;5054506;28;20187;-64
2021/12/01 04:19:24;;;;;;;0.98;0.98;;;16.30;59.20;;;;;;5053120;28;20579;-62
2021/12/01 04:21:50;;;;;;;1.08;0.95;;;16.30;59.20;;;;;;5053956;28;20171;-63
2021/12/01 04:24:15;;;;;;;1.20;1.10;;;16.30;59.20;;;;;;5054187;28;20175;-62
2021/12/01 04:26:41;;;;;;;1.10;1.10;;;16.30;59.20;;;;;;5052819;28;20629;-63
2021/12/01 04:29:06;;;;;;;0.80;0.80;;;16.30;59.10;;;;;;5054058;28;20182;-61
2021/12/01 04:31:34;;;;;;;0.80;0.80;;;16.30;59.20;;;;;;5053258;28;20183;-61
2021/12/01 04:34:00;;;;;;;0.80;0.80;;;16.30;59.20;;;;;;5053255;28;20205;-61
2021/12/01 04:36:28;;;;;;;1.15;1.00;;;16.30;59.10;;;;;;5053366;28;20258;-62
2021/12/01 04:38:53;;;;;;;1.13;1.00;;;16.30;59.10;;;;;;5053738;28;20242;-64
2021/12/01 04:41:21;;;;;;;0.98;0.98;;;16.30;59.20;;;;;;5052870;28;20187;-61
2021/12/01 04:43:47;;;;;;;0.98;0.90;;;16.30;59.80;;;;;;5054017;28;20555;-62
2021/12/01 04:46:16;;;;;;;0.90;0.90;;;16.30;59.10;;;;;;5052529;28;20529;-62
2021/12/01 04:48:41;;;;;;;0.90;0.90;;;16.30;59.10;;;;;;5051005;28;20210;-63
2021/12/01 04:51:07;;;;;;;0.85;0.85;;;16.20;59.00;;;;;;5053351;28;20179;-63
2021/12/01 04:53:32;;;;;;;0.90;0.82;;;16.30;59.10;;;;;;5053308;28;20241;-63
2021/12/01 04:55:58;;;;;;;0.82;0.82;;;16.30;59.00;;;;;;5052849;28;20345;-65
2021/12/01 04:58:24;;;;;;;1.25;1.00;;;16.30;59.10;;;;;;5053030;28;20179;-65
2021/12/01 05:00:49;;;;;;;1.48;0.88;;;16.20;59.00;;;;;;5052607;28;20226;-65
2021/12/01 05:03:15;;;;;;;0.90;0.90;;;16.20;59.00;;;;;;5053309;28;20178;-63
2021/12/01 05:05:40;;;;;;;0.88;0.88;;;16.20;59.00;;;;;;5052706;28;20187;-63
2021/12/01 05:08:06;;;;;;;0.77;0.77;;;16.20;59.00;;;;;;5052407;28;20963;-63
2021/12/01 05:10:31;;;;;;;0.80;0.80;;;16.20;59.00;;;;;;5052912;28;20167;-64
2021/12/01 05:12:56;;;;;;;0.80;0.80;;;16.20;59.00;;;;;;5053099;28;20178;-65
2021/12/01 05:15:22;;;;;;;0.70;0.70;;;16.20;59.00;;;;;;5052074;28;20210;-64
2021/12/01 05:17:49;;;;;;;0.70;0.70;;;16.20;58.90;;;;;;5052998;28;20168;-64
2021/12/01 05:20:17;;;;;;;0.80;0.80;;;16.20;59.00;;;;;;5052684;28;20206;-63
2021/12/01 05:22:44;;;;;;;1.10;1.00;;;16.20;59.00;;;;;;5051894;28;20179;-64
2021/12/01 05:25:09;;;;;;;1.00;1.00;;;16.20;59.00;;;;;;5052957;28;20183;-62
2021/12/01 05:27:35;;;;;;;0.90;0.90;;;16.20;59.00;;;;;;5052593;28;20224;-62
2021/12/01 05:30:00;;;;;;;0.90;0.90;;;16.20;58.90;;;;;;5052049;28;20629;-62
2021/12/01 05:32:26;;;;;;;0.95;0.95;;;16.20;59.00;;;;;;5052318;28;20590;-62
2021/12/01 05:34:52;;;;;;;0.80;0.80;;;16.20;59.00;;;;;;5052597;28;20175;-62
2021/12/01 05:37:17;;;;;;;0.77;0.77;;;16.10;58.90;;;;;;5051782;28;20172;-62
2021/12/01 05:39:45;;;;;;;1.27;1.08;;;16.10;58.90;;;;;;5052274;28;20345;-62
2021/12/01 05:42:12;;;;;;;1.70;0.90;;;16.10;59.00;;;;;;5052533;28;20186;-64
2021/12/01 05:44:38;;;;;;;0.95;0.95;;;16.20;58.90;;;;;;5051439;28;20175;-63
2021/12/01 05:47:04;;;;;;;0.70;0.70;;;16.10;58.90;;;;;;5052356;28;20538;-62
2021/12/01 05:49:29;;;;;;;1.27;0.90;;;16.10;58.90;;;;;;5051853;28;20662;-62
2021/12/01 05:51:55;;;;;;;0.95;0.90;;;16.10;58.90;;;;;;5051562;28;20178;-64
2021/12/01 05:54:20;;;;;;;0.80;0.80;;;16.10;58.90;;;;;;5052064;28;20186;-63
2021/12/01 05:56:46;;;;;;;1.00;0.90;;;16.10;58.90;;;;;;5052096;28;20258;-65
2021/12/01 05:59:12;;;;;;;0.60;0.60;;;16.10;58.90;;;;;;5051508;28;20297;-63
2021/12/01 06:01:37;;;;;;;0.82;0.82;;;16.10;59.00;;;;;;5051740;28;20637;-63
2021/12/01 06:04:03;;;;;;;0.75;0.73;;;16.10;58.90;;;;;;5051523;28;20174;-62
2021/12/01 06:06:29;;;;;;;0.77;0.77;;;16.10;58.90;;;;;;5051823;28;20701;-62
2021/12/01 06:08:55;;;;;;;0.70;0.70;;;16.10;59.00;;;;;;5052057;28;20175;-64
2021/12/01 06:11:21;;;;;;;0.63;0.63;;;16.10;59.00;;;;;;5051047;28;20262;-63
2021/12/01 06:13:48;;;;;;;0.90;0.90;;;16.00;58.90;;;;;;5051991;28;20258;-64
2021/12/01 06:16:14;;;;;;;0.63;0.63;;;16.10;59.00;;;;;;5051906;28;20548;-63
2021/12/01 06:18:40;;;;;;;0.80;0.80;;;16.00;58.90;;;;;;5051040;28;20270;-63
2021/12/01 06:21:05;;;;;;;0.80;0.80;;;16.00;58.90;;;;;;5051758;28;20297;-62
2021/12/01 06:23:31;;;;;;;0.88;0.88;;;16.10;58.90;;;;;;5051442;28;20649;-62
2021/12/01 06:25:56;;;;;;;0.80;0.80;;;16.00;58.90;;;;;;5051221;28;20178;-63
2021/12/01 06:28:22;;;;;;;0.70;0.70;;;16.00;58.90;;;;;;5051391;28;20171;-63
2021/12/01 06:30:47;;;;;;;0.70;0.70;;;16.00;58.90;;;;;;5051652;28;20720;-63
2021/12/01 06:33:13;;;;;;;0.63;0.63;;;16.00;58.90;;;;;;5050935;28;20171;-62
2021/12/01 06:35:38;;;;;;;0.60;0.60;;;16.00;58.90;;;;;;5051318;28;20190;-62
2021/12/01 06:38:04;;;;;;;0.70;0.70;;;16.00;58.90;;;;;;5051844;28;20532;-62
2021/12/01 06:40:30;;;;;;;0.60;0.60;;;16.00;58.90;;;;;;5050732;28;20218;-62
2021/12/01 06:42:55;;;;;;;0.50;0.50;;;16.00;58.90;;;;;;5051766;28;20529;-62
2021/12/01 06:45:21;;;;;;;0.75;0.70;;;16.00;59.00;;;;;;5051626;28;20171;-61
2021/12/01 06:47:49;;;;;;;0.70;0.70;;;16.00;58.90;;;;;;5051056;28;20512;-61
2021/12/01 06:50:15;;;;;;;0.60;0.60;;;16.00;58.90;;;;;;5051656;28;20246;-61
2021/12/01 06:52:40;;;;;;;0.68;0.68;;;16.00;58.90;;;;;;5051707;28;20527;-62
2021/12/01 06:55:07;;;;;;;0.60;0.60;;;16.00;58.90;;;;;;5050955;28;20519;-62
2021/12/01 06:57:32;;;;;;;0.63;0.63;;;16.00;59.00;;;;;;5051235;28;20186;-62
2021/12/01 06:59:58;;;;;;;0.63;0.63;;;15.90;58.90;;;;;;5051370;28;20206;-61
2021/12/01 07:02:23;;;;;;;0.60;0.60;;;16.00;59.00;;;;;;5050776;28;20203;-61
2021/12/01 07:04:49;;;;;;;0.70;0.70;;;16.00;59.00;;;;;;5051463;28;20656;-61
2021/12/01 07:07:14;;;;;;;0.60;0.60;;;16.00;59.00;;;;;;5051643;28;20206;-61
2021/12/01 07:09:41;;;;;;;0.60;0.60;;;16.00;58.90;;;;;;5053925;28;20262;-62
2021/12/01 07:12:07;;;;;;;0.57;0.57;;;16.10;58.90;;;;;;5055222;28;20634;-63
2021/12/01 07:14:35;;;;;;;0.55;0.55;;;16.20;58.90;;;;;;5054145;28;20186;-62
2021/12/01 07:17:01;;;;;;;0.50;0.50;;;16.30;58.90;;;;;;5055128;28;20198;-62
2021/12/01 07:19:26;;;;;;;0.52;0.52;;;16.40;58.90;;;;;;5055060;28;20230;-62
2021/12/01 07:21:52;;;;;;;0.50;0.50;;;16.50;58.80;;;;;;5054503;28;20207;-62
2021/12/01 07:24:19;;;;;;;1.05;0.80;;;16.60;58.50;;;;;;5055074;28;20729;-66
2021/12/01 07:26:45;;;;;;;0.55;0.50;;;16.70;58.40;;;;;;5055200;28;20266;-64
2021/12/01 07:29:11;;;;;;;0.43;0.43;;;16.90;58.10;;;;;;5054243;28;20194;-63
2021/12/01 07:31:36;;;;;;;0.50;0.50;;;17.00;57.90;;;;;;5054848;28;20276;-63
2021/12/01 07:34:02;;;;;;;0.40;0.40;;;17.10;57.90;;;;;;5054833;28;20207;-65
2021/12/01 07:36:27;;;;;;;0.45;0.45;;;17.40;57.30;;;;;;5053857;28;20583;-63
2021/12/01 07:38:53;;;;;;;0.50;0.50;;;17.80;56.60;;;;;;5054831;28;20266;-63
2021/12/01 07:41:20;;;;;;;0.40;0.40;;;18.10;56.10;;;;;;5054407;28;20321;-62
2021/12/01 07:43:45;;;;;;;0.40;0.40;;;18.30;55.70;;;;;;5053784;28;20207;-62
2021/12/01 07:46:11;;;;;;;0.40;0.40;;;18.50;55.30;;;;;;5054845;28;20249;-61
2021/12/01 07:48:37;;;;;;;0.40;0.40;;;18.70;54.90;;;;;;5054201;28;20646;-61
2021/12/01 07:51:03;;;;;;;0.40;0.40;;;18.70;54.70;;;;;;5053740;28;20179;-62
2021/12/01 07:53:28;;;;;;;0.43;0.43;;;18.90;54.60;;;;;;5054019;28;20579;-62
2021/12/01 07:55:54;;;;;;;0.38;0.38;;;18.90;54.50;;;;;;5054409;28;20175;-61
2021/12/01 07:58:19;;;;;;;0.30;0.30;;;18.80;54.60;;;;;;5053295;28;20174;-62
2021/12/01 08:00:45;;;;;;;0.40;0.40;;;18.80;54.70;;;;;;5054243;28;20222;-62
2021/12/01 08:03:10;;;;;;;0.40;0.40;;;18.80;54.60;;;;;;5054450;28;20167;-61
2021/12/01 08:05:36;;;;;;;0.40;0.40;;;18.80;54.70;;;;;;5053252;28;20179;-60
2021/12/01 08:08:02;;;;;;;0.30;0.30;;;18.70;54.90;;;;;;5054340;28;20642;-69
2021/12/01 08:10:27;;;;;;;0.40;0.35;;;18.70;55.00;;;;;;5053858;28;20210;-68
2021/12/01 08:12:56;;;;;;;0.85;0.70;;;18.70;55.30;;;;;;5053352;28;20571;-69
2021/12/01 08:15:22;;;;;;;0.80;0.80;;;18.70;55.50;;;;;;5053663;28;20206;-71
2021/12/01 08:17:47;;;;;;;0.50;0.50;;;18.60;55.60;;;;;;5053290;28;20206;-70
2021/12/01 08:20:13;;;;;;;1.55;0.60;;;18.60;55.70;;;;;;5053658;28;20346;-68
2021/12/01 08:22:38;;;;;;;3.08;0.65;;;18.60;55.80;;;;;;5053209;28;20186;-67
2021/12/01 08:25:04;;;;;;;0.85;0.63;;;18.60;56.10;;;;;;5053192;28;20183;-71
2021/12/01 08:27:30;;;;;;;3.13;0.90;;;18.60;56.30;;;;;;5053359;28;20544;-67
2021/12/01 08:29:55;;;;;;;1.90;0.70;;;18.60;56.40;;;;;;5053649;28;20272;-68
2021/12/01 08:32:21;;;;;;;3.83;0.82;;;18.60;56.40;;;;;;5052860;28;20182;-69
2021/12/01 08:34:51;;;;;;;1.75;0.75;;;18.50;56.50;;;;;;5053818;28;20199;-69
2021/12/01 08:37:18;;;;;;;1.15;0.88;;;18.60;56.50;;;;;;5053706;28;20607;-69
2021/12/01 08:39:48;;;;;;;2.88;1.00;;;18.60;56.40;;;;;;5052763;28;20248;-67
2021/12/01 08:42:17;;;;;;;1.90;0.63;;;18.60;56.50;;;;;;5053475;28;20175;-68
2021/12/01 08:44:45;;;;;;;1.05;0.82;;;18.60;56.50;;;;;;5053330;28;20180;-67
2021/12/01 08:47:20;;;;;;;0.60;0.60;;;18.60;56.50;;;;;;5052751;28;20500;-68
2021/12/01 08:49:46;;;;;;;0.68;0.50;;;18.60;56.50;;;;;;5053360;28;20285;-68
2021/12/01 08:52:11;;;;;;;1.55;0.80;;;18.60;56.50;;;;;;5052828;28;20218;-68
2021/12/01 08:54:37;;;;;;;0.80;0.50;;;18.60;56.60;;;;;;5051540;28;20262;-68
2021/12/01 08:57:03;;;;;;;0.88;0.70;;;18.60;56.50;;;;;;5052690;28;20159;-68
2021/12/01 08:59:28;;;;;;;2.58;0.98;;;18.60;56.60;;;;;;5052505;28;20203;-69
2021/12/01 09:01:54;;;;;;;0.60;0.60;;;18.60;56.70;;;;;;5052219;28;20175;-69
2021/12/01 09:04:20;;;;;;;1.10;0.68;;;18.50;56.80;;;;;;5052291;28;20186;-70
2021/12/01 09:06:45;;;;;;;1.52;0.60;;;18.50;57.00;;;;;;5052891;28;20167;-68
2021/12/01 09:09:18;;;;;;;1.30;0.70;;;18.40;57.10;;;;;;5051637;28;20199;-68
2021/12/01 09:11:44;;;;;;;2.90;0.80;;;18.30;57.20;;;;;;5052759;28;20182;-64
2021/12/01 09:14:09;;;;;;;1.38;0.90;;;18.30;57.30;;;;;;5052114;28;20764;-64
2021/12/01 09:16:35;;;;;;;2.03;0.68;;;18.20;57.40;;;;;;5052592;28;20266;-67
2021/12/01 09:19:01;;;;;;;3.30;0.90;;;18.20;57.60;;;;;;5052894;28;20167;-67
2021/12/01 09:21:26;;;;;;;3.05;1.13;;;18.20;57.60;;;;;;5051850;28;20179;-70
2021/12/01 09:23:52;;;;;;;1.23;0.70;;;18.20;57.80;;;;;;5052382;28;20640;-66
2021/12/01 09:26:20;;;;;;;2.90;0.95;;;18.20;57.70;;;;;;5052896;28;20595;-66
2021/12/01 09:28:46;;;;;;;2.53;0.75;;;18.30;57.80;;;;;;5052120;28;20175;-69
2021/12/01 09:31:11;;;;;;;2.22;0.82;;;18.40;57.60;;;;;;5052198;28;20175;-69
2021/12/01 09:33:37;;;;;;;2.67;0.80;;;18.40;57.50;;;;;;5057230;28;20197;-68
2021/12/01 09:36:03;;;;;;;1.38;0.50;;;18.40;57.30;;;;;;5055101;28;20191;-70
2021/12/01 09:38:28;;;;;;;4.75;0.60;;;18.40;57.20;;;;;;5071128;28;20171;-70
2021/12/01 09:40:54;;;;;;;0.93;0.50;;;18.40;57.20;;;;;;5068724;28;20218;-70
2021/12/01 09:43:24;;;;;;;2.08;0.73;;;18.40;57.30;;;;;;5051827;28;20643;-71
2021/12/01 09:45:50;;;;;;;1.92;0.80;;;18.30;57.30;;;;;;5052705;28;20771;-68
2021/12/01 09:48:15;;;;;;;1.52;0.85;;;18.20;57.50;;;;;;5034540;28;20163;-68
2021/12/01 09:50:41;;;;;;;2.03;0.85;;;18.20;57.60;;;;;;5065388;28;20182;-68
2021/12/01 09:53:06;;;;;;;1.67;0.90;;;18.10;57.70;;;;;;5072144;28;20170;-69
2021/12/01 09:55:32;;;;;;;1.65;0.90;;;18.10;57.70;;;;;;5072076;28;20181;-69
2021/12/01 09:58:06;;;;;;;1.42;0.70;;;18.10;57.60;;;;;;5071674;28;20333;-69
2021/12/01 10:00:33;;;;;;;0.70;0.70;;;18.20;57.60;;;;;;5067920;28;20211;-69
2021/12/01 10:02:59;;;;;;;3.97;0.90;;;18.30;57.60;;;;;;5052100;28;20179;-70
2021/12/01 10:05:50;;;;;;;1.70;0.70;;;18.30;57.50;;;;;;5051135;28;20217;-70
2021/12/01 10:08:23;;;;;;;2.50;0.68;;;18.30;57.30;;;;;;5070223;28;20697;-70
2021/12/01 10:10:49;;;;;;;1.20;0.90;;;18.30;57.30;;;;;;5071283;28;20608;-69
2021/12/01 10:13:22;;;;;;;1.50;0.80;;;18.30;57.40;;;;;;5072099;28;20174;-69
2021/12/01 10:15:47;;;;;;;1.17;0.60;;;18.30;57.40;;;;;;5070989;28;20243;-68
2021/12/01 10:18:14;;;;;;;1.45;0.70;;;18.30;57.40;;;;;;5071621;28;20178;-68
2021/12/01 10:20:40;;;;;;;3.35;0.80;;;18.30;57.40;;;;;;5071836;28;20222;-68
2021/12/01 10:23:15;;;;;;;0.75;0.68;;;18.30;57.40;;;;;;5072160;28;20585;-68
2021/12/01 10:25:41;;;;;;;0.60;0.60;;;18.30;57.40;;;;;;5071074;28;20173;-68
2021/12/01 10:28:07;;;;;;;2.60;1.00;;;18.30;57.40;;;;;;5071625;28;20486;-68
2021/12/01 10:30:43;;;;;;;1.27;0.80;;;18.30;57.40;;;;;;5071431;28;20185;-68
2021/12/01 10:33:13;;;;;;;1.67;0.68;;;18.30;57.40;;;;;;5071395;28;20174;-69
2021/12/01 10:35:39;;;;;;;0.73;0.70;;;18.20;57.40;;;;;;5071694;28;20283;-70
2021/12/01 10:38:06;;;;;;;1.30;0.50;;;18.20;57.40;;;;;;5071427;28;20214;-68
2021/12/01 10:40:32;;;;;;;0.98;0.65;;;18.20;57.50;;;;;;5067663;28;20264;-69
2021/12/01 10:43:11;;;;;;;1.95;0.80;;;18.10;57.50;;;;;;5052286;28;20613;-68
2021/12/01 10:45:40;;;;;;;0.60;0.52;;;18.10;57.60;;;;;;5055081;28;20188;-68
2021/12/01 10:48:19;;;;;;;1.05;0.63;;;18.10;57.70;;;;;;5055675;28;20175;-70
2021/12/01 10:50:44;;;;;;;0.95;0.70;;;18.10;57.80;;;;;;5055684;28;20220;-67
2021/12/01 10:53:21;;;;;;;1.73;0.80;;;18.10;57.60;;;;;;5055050;28;20174;-68
2021/12/01 10:55:51;;;;;;;2.15;0.77;;;18.10;57.50;;;;;;5056260;28;20170;-68
2021/12/01 10:58:16;;;;;;;1.52;0.73;;;18.20;57.60;;;;;;5055699;28;20201;-68
2021/12/01 11:00:44;;;;;;;2.42;0.70;;;18.20;57.50;;;;;;5054601;28;20210;-69
2021/12/01 11:03:17;;;;;;;1.42;0.82;;;18.20;57.50;;;;;;5055894;28;20187;-69
2021/12/01 11:05:44;;;;;;;0.65;0.50;;;18.20;57.50;;;;;;5055181;28;20190;-70
2021/12/01 11:08:14;;;;;;;1.33;0.63;;;18.10;57.50;;;;;;5054653;28;20236;-70
2021/12/01 11:10:40;;;;;;;0.50;0.50;;;18.10;57.60;;;;;;5054875;28;20737;-69
2021/12/01 11:13:05;;;;;;;1.05;0.73;;;18.00;57.70;;;;;;5055332;28;20336;-68
2021/12/01 11:15:33;;;;;;;1.42;0.80;;;18.00;58.20;;;;;;5054242;28;20171;-68
2021/12/01 11:17:59;;;;;;;0.77;0.70;;;18.10;57.70;;;;;;5055037;28;20237;-68
2021/12/01 11:20:53;;;;;;;2.53;1.08;;;18.10;57.70;;;;;;5054779;28;20210;-68
2021/12/01 11:23:22;;;;;;;0.65;0.60;;;18.00;57.70;;;;;;5053927;28;20175;-68
2021/12/01 11:25:50;;;;;;;0.75;0.50;;;18.00;57.70;;;;;;5054913;28;20646;-68
2021/12/01 11:28:16;;;;;;;1.13;0.90;;;18.10;57.60;;;;;;5054284;28;20308;-70
2021/12/01 11:30:53;;;;;;;0.68;0.57;;;18.10;57.60;;;;;;5054527;28;20638;-69
2021/12/01 11:33:19;;;;;;;0.88;0.60;;;18.00;57.60;;;;;;5054980;28;20273;-71
2021/12/01 11:35:52;;;;;;;1.98;0.75;;;18.00;57.70;;;;;;5054206;28;20608;-69
2021/12/01 11:38:18;;;;;;;0.60;0.50;;;18.00;57.80;;;;;;5054786;28;20266;-70
2021/12/01 11:40:43;;;;;;;2.95;1.15;;;17.90;57.80;;;;;;5059003;28;20768;-68
2021/12/01 11:43:10;;;;;;;2.53;0.60;;;17.90;57.90;;;;;;5074056;28;20174;-69
2021/12/01 11:45:37;;;;;;;4.82;1.13;;;17.90;58.00;;;;;;5074396;28;20232;-69
2021/12/01 11:48:03;;;;;;;3.03;0.80;;;17.80;58.10;;;;;;5074739;28;20181;-68
2021/12/01 11:50:32;;;;;;;1.00;0.60;;;17.90;58.00;;;;;;5055563;28;20234;-68
2021/12/01 11:53:13;;;;;;;1.23;0.60;;;17.90;58.00;;;;;;5056860;28;20176;-68
2021/12/01 11:55:56;;;;;;;1.02;0.70;;;18.00;57.90;;;;;;5074042;28;20304;-69
2021/12/01 11:58:40;;;;;;;3.13;0.73;;;18.00;58.20;;;;;;5074301;28;20178;-67
2021/12/01 12:01:21;;;;;;;3.17;0.73;;;18.00;58.00;;;;;;5074285;28;20644;-67
2021/12/01 12:04:05;;;;;;;2.85;0.93;;;17.90;58.00;;;;;;5073637;28;20658;-68
2021/12/01 12:06:31;;;;;;;1.73;0.60;;;17.90;58.00;;;;;;5072557;28;20221;-68
2021/12/01 12:08:58;;;;;;;4.00;1.08;;;17.80;58.30;;;;;;5074609;28;20186;-68
2021/12/01 12:11:39;;;;;;;4.10;1.00;;;17.80;58.50;;;;;;5073319;28;20189;-68
2021/12/01 12:14:18;;;;;;;6.03;0.82;;;17.80;58.50;;;;;;5074622;28;20270;-65
2021/12/01 12:17:12;;;;;;;5.50;0.80;;;17.80;58.70;;;;;;5074210;28;20178;-68
2021/12/01 12:19:51;;;;;;;3.33;0.85;;;17.80;58.70;;;;;;5073904;28;20209;-66
2021/12/01 12:22:27;;;;;;;2.75;0.88;;;17.90;58.60;;;;;;5074414;28;20177;-69
2021/12/01 12:24:54;;;;;;;3.55;0.88;;;17.90;58.50;;;;;;5056994;28;20198;-69
2021/12/01 12:27:33;;;;;;;3.40;0.80;;;17.90;58.50;;;;;;5073543;28;20183;-67
2021/12/01 12:30:00;;;;;;;2.20;0.70;;;17.90;58.50;;;;;;5074031;28;20181;-67
2021/12/01 12:32:29;;;;;;;1.90;0.73;;;17.90;58.50;;;;;;5073147;28;20185;-67
2021/12/01 12:34:56;;;;;;;3.70;1.00;;;17.80;58.50;;;;;;5073552;28;20651;-67
2021/12/01 12:37:23;;;;;;;0.68;0.52;;;17.80;58.60;;;;;;5073243;28;20204;-67
2021/12/01 12:39:49;;;;;;;2.25;1.15;;;17.80;58.60;;;;;;5073084;28;20202;-68
2021/12/01 12:42:15;;;;;;;1.80;0.77;;;17.70;58.60;;;;;;5056591;28;20167;-68
2021/12/01 12:44:45;;;;;;;1.85;0.82;;;17.70;58.50;;;;;;5053460;28;20302;-67
2021/12/01 12:47:22;;;;;;;1.65;0.50;;;17.80;58.60;;;;;;5052723;28;20637;-67
2021/12/01 12:49:50;;;;;;;2.92;0.98;;;17.70;58.50;;;;;;5053210;28;20223;-66
2021/12/01 12:52:24;;;;;;;2.65;0.77;;;17.70;58.60;;;;;;5052443;28;20179;-66
2021/12/01 12:55:01;;;;;;;1.23;0.75;;;17.60;58.60;;;;;;5053618;28;20468;-67
2021/12/01 12:57:46;;;;;;;2.55;0.80;;;17.60;58.70;;;;;;5053014;28;20243;-67